createdAt,value
2022-12-26T00:00:23.343Z,27.50
2022-12-26T00:02:50.126Z,27.40
2022-12-26T00:05:16.890Z,27.50
2022-12-26T00:07:43.670Z,27.50
2022-12-26T00:10:10.401Z,27.50
2022-12-26T00:12:37.016Z,27.40
2022-12-26T00:15:04.229Z,27.40
2022-12-26T00:17:31.046Z,27.40
2022-12-26T00:19:57.637Z,27.40
2022-12-26T00:22:24.301Z,27.40
2022-12-26T00:24:51.020Z,27.40
2022-12-26T00:27:17.617Z,27.40
2022-12-26T00:29:44.270Z,27.40
2022-12-26T00:32:10.938Z,27.40
2022-12-26T00:34:38.520Z,27.30
2022-12-26T00:37:05.262Z,27.30
2022-12-26T00:39:31.956Z,27.10
2022-12-26T00:41:58.558Z,27.30
2022-12-26T00:44:26.006Z,27.30
2022-12-26T00:46:52.682Z,27.20
2022-12-26T00:49:19.321Z,27.20
2022-12-26T00:51:45.942Z,27.20
2022-12-26T00:54:12.546Z,27.20
2022-12-26T00:56:39.163Z,27.20
2022-12-26T00:59:05.835Z,27.20
2022-12-26T01:01:32.803Z,27.10
2022-12-26T01:03:59.897Z,27.10
2022-12-26T01:06:26.572Z,27.10
2022-12-26T01:08:53.967Z,27.10
2022-12-26T01:11:39.947Z,27.10
2022-12-26T01:14:17.716Z,27.10
2022-12-26T01:16:46.115Z,27.10
2022-12-26T01:19:13.251Z,27.00
2022-12-26T01:21:40.191Z,27.00
2022-12-26T01:24:07.664Z,27.00
2022-12-26T01:26:34.348Z,27.10
2022-12-26T01:29:00.940Z,27.00
2022-12-26T01:31:27.936Z,27.00
2022-12-26T01:33:54.589Z,27.00
2022-12-26T01:36:21.190Z,27.00
2022-12-26T01:38:47.957Z,27.00
2022-12-26T01:41:19.529Z,26.90
2022-12-26T01:43:56.865Z,26.90
2022-12-26T01:46:42.791Z,26.90
2022-12-26T01:49:14.189Z,26.90
2022-12-26T01:51:44.340Z,26.90
2022-12-26T01:54:41.289Z,26.90
2022-12-26T01:57:04.195Z,26.90
2022-12-26T01:59:32.698Z,26.90
2022-12-26T02:02:00.377Z,26.90
2022-12-26T02:04:50.672Z,26.90
2022-12-26T02:07:17.454Z,26.90
2022-12-26T02:09:44.353Z,26.80
2022-12-26T02:12:35.325Z,26.90
2022-12-26T02:15:07.597Z,26.80
2022-12-26T02:17:34.247Z,26.80
2022-12-26T02:20:23.304Z,26.80
2022-12-26T02:23:20.620Z,26.80
2022-12-26T02:25:50.290Z,26.80
2022-12-26T02:28:49.449Z,26.80
2022-12-26T02:31:40.899Z,26.80
2022-12-26T02:34:20.388Z,26.70
2022-12-26T02:37:08.646Z,26.80
2022-12-26T02:39:46.621Z,26.80
2022-12-26T02:42:31.716Z,26.70
2022-12-26T02:45:24.720Z,26.80
2022-12-26T02:48:08.725Z,26.70
2022-12-26T02:51:04.438Z,26.70
2022-12-26T02:54:05.703Z,26.70
2022-12-26T02:56:55.834Z,26.70
2022-12-26T03:00:02.627Z,26.70
2022-12-26T03:03:00.307Z,26.70
2022-12-26T03:05:52.864Z,26.70
2022-12-26T03:08:53.634Z,26.70
2022-12-26T03:11:39.536Z,26.70
2022-12-26T03:14:24.162Z,26.70
2022-12-26T03:17:14.149Z,26.70
2022-12-26T03:19:58.102Z,26.70
2022-12-26T03:22:54.092Z,26.70
2022-12-26T03:25:55.521Z,26.70
2022-12-26T03:28:23.123Z,26.70
2022-12-26T03:30:50.199Z,26.70
2022-12-26T03:33:50.839Z,26.70
2022-12-26T03:36:32.389Z,26.60
2022-12-26T03:39:21.555Z,26.70
2022-12-26T03:42:16.106Z,26.70
2022-12-26T03:45:16.271Z,26.60
2022-12-26T03:48:07.248Z,26.60
2022-12-26T03:51:02.442Z,26.60
2022-12-26T03:53:58.359Z,26.70
2022-12-26T03:56:52.467Z,26.60
2022-12-26T03:59:46.532Z,26.60
2022-12-26T04:02:33.982Z,26.60
2022-12-26T04:05:22.792Z,26.60
2022-12-26T04:08:18.557Z,26.60
2022-12-26T04:11:08.581Z,26.60
2022-12-26T04:14:05.910Z,26.60
2022-12-26T04:17:09.579Z,26.60
2022-12-26T04:19:54.365Z,26.60
2022-12-26T04:22:49.072Z,26.50
2022-12-26T04:25:48.447Z,26.60
2022-12-26T04:28:38.297Z,26.60
2022-12-26T04:31:49.700Z,26.60
2022-12-26T04:34:44.916Z,26.50
2022-12-26T04:37:38.319Z,26.60
2022-12-26T04:40:28.653Z,26.60
2022-12-26T04:43:47.015Z,26.50
2022-12-26T04:46:02.849Z,26.60
2022-12-26T04:48:48.166Z,26.60
2022-12-26T04:51:14.764Z,26.60
2022-12-26T04:53:41.456Z,26.60
2022-12-26T04:56:09.523Z,26.60
2022-12-26T04:58:36.163Z,26.60
2022-12-26T05:01:21.349Z,26.50
2022-12-26T05:04:06.623Z,26.60
2022-12-26T05:06:51.999Z,26.60
2022-12-26T05:09:35.448Z,26.60
2022-12-26T05:12:08.273Z,26.60
2022-12-26T05:14:36.071Z,26.60
2022-12-26T05:17:22.830Z,26.60
2022-12-26T05:20:08.165Z,26.60
2022-12-26T05:22:56.765Z,26.60
2022-12-26T05:25:48.822Z,26.60
2022-12-26T05:28:35.993Z,26.60
2022-12-26T05:31:03.631Z,26.60
2022-12-26T05:33:49.506Z,26.60
2022-12-26T05:36:19.179Z,26.60
2022-12-26T05:38:45.918Z,26.60
2022-12-26T05:41:12.513Z,26.60
2022-12-26T05:43:39.077Z,26.60
2022-12-26T05:46:05.772Z,26.60
2022-12-26T05:48:32.721Z,26.60
2022-12-26T05:51:03.952Z,26.60
2022-12-26T05:53:31.510Z,26.60
2022-12-26T05:56:10.746Z,26.60
2022-12-26T05:58:38.072Z,26.60
2022-12-26T06:01:08.980Z,26.60
2022-12-26T06:03:36.332Z,26.60
2022-12-26T06:06:03.666Z,26.60
2022-12-26T06:08:30.372Z,26.60
2022-12-26T06:10:57.023Z,26.80
2022-12-26T06:13:23.725Z,26.60
2022-12-26T06:15:50.426Z,26.60
2022-12-26T06:18:17.493Z,26.60
2022-12-26T06:20:44.100Z,26.60
2022-12-26T06:23:10.692Z,26.60
2022-12-26T06:25:37.334Z,26.60
2022-12-26T06:28:04.205Z,26.60
2022-12-26T06:30:30.787Z,26.60
2022-12-26T06:32:57.575Z,26.60
2022-12-26T06:35:24.218Z,26.60
2022-12-26T06:37:50.777Z,26.70
2022-12-26T06:40:17.443Z,26.60
2022-12-26T06:42:44.030Z,26.60
2022-12-26T06:45:11.131Z,26.60
2022-12-26T06:47:37.758Z,26.60
2022-12-26T06:50:04.626Z,26.60
2022-12-26T06:52:31.242Z,26.60
2022-12-26T06:54:58.726Z,26.60
2022-12-26T06:57:25.310Z,26.60
2022-12-26T06:59:51.903Z,26.60
2022-12-26T07:02:18.697Z,26.60
2022-12-26T07:04:45.399Z,26.50
2022-12-26T07:07:12.004Z,26.70
2022-12-26T07:09:38.631Z,26.60
2022-12-26T07:12:05.431Z,26.60
2022-12-26T07:14:32.012Z,26.60
2022-12-26T07:16:58.606Z,26.60
2022-12-26T07:19:25.205Z,26.60
2022-12-26T07:21:51.847Z,26.60
2022-12-26T07:24:21.126Z,26.50
2022-12-26T07:26:48.522Z,26.50
2022-12-26T07:29:15.701Z,26.50
2022-12-26T07:31:42.849Z,26.50
2022-12-26T07:34:09.569Z,26.50
2022-12-26T07:36:36.219Z,26.50
2022-12-26T07:39:03.264Z,26.50
2022-12-26T07:41:48.492Z,26.50
2022-12-26T07:44:15.276Z,26.50
2022-12-26T07:46:41.967Z,26.50
2022-12-26T07:49:09.033Z,26.50
2022-12-26T07:51:35.695Z,26.50
2022-12-26T07:54:07.250Z,26.50
2022-12-26T07:56:37.714Z,26.40
2022-12-26T07:59:04.365Z,26.50
2022-12-26T08:01:31.245Z,26.50
2022-12-26T08:03:58.183Z,26.50
2022-12-26T08:06:24.886Z,26.50
2022-12-26T08:08:52.347Z,26.50
2022-12-26T08:11:24.480Z,26.50
2022-12-26T08:13:52.095Z,26.50
2022-12-26T08:16:19.209Z,26.50
2022-12-26T08:18:45.926Z,26.50
2022-12-26T08:21:13.069Z,26.50
2022-12-26T08:23:40.041Z,26.50
2022-12-26T08:26:11.848Z,26.50
2022-12-26T08:28:38.828Z,26.50
2022-12-26T08:31:10.392Z,26.50
2022-12-26T08:33:37.147Z,26.50
2022-12-26T08:36:09.161Z,26.50
2022-12-26T08:38:36.652Z,26.50
2022-12-26T08:41:03.664Z,26.50
2022-12-26T08:43:48.892Z,26.50
2022-12-26T08:46:18.563Z,26.50
2022-12-26T08:48:45.384Z,26.50
2022-12-26T08:51:23.449Z,26.50
2022-12-26T08:53:51.187Z,26.50
2022-12-26T08:56:21.811Z,26.50
2022-12-26T08:58:48.699Z,26.50
2022-12-26T09:01:18.139Z,26.50
2022-12-26T09:03:44.996Z,26.50
2022-12-26T09:06:14.034Z,26.60
2022-12-26T09:08:41.491Z,26.50
2022-12-26T09:11:13.995Z,26.60
2022-12-26T09:13:41.857Z,26.50
2022-12-26T09:16:16.910Z,26.60
2022-12-26T09:18:45.128Z,26.50
2022-12-26T09:21:13.761Z,26.50
2022-12-26T09:23:42.794Z,26.60
2022-12-26T09:26:14.945Z,26.60
2022-12-26T09:28:42.402Z,26.50
2022-12-26T09:31:13.030Z,26.60
2022-12-26T09:33:39.948Z,26.60
2022-12-26T09:36:14.289Z,26.60
2022-12-26T09:38:42.061Z,26.60
2022-12-26T09:41:11.477Z,26.60
2022-12-26T09:44:14.841Z,26.60
2022-12-26T09:47:02.911Z,26.60
2022-12-26T09:49:34.099Z,26.70
2022-12-26T09:52:11.395Z,26.60
2022-12-26T09:54:42.308Z,26.60
2022-12-26T09:57:16.770Z,26.60
2022-12-26T09:59:55.452Z,26.70
2022-12-26T10:02:25.086Z,26.60
2022-12-26T10:04:53.382Z,26.70
2022-12-26T10:07:29.507Z,26.70
2022-12-26T10:10:00.115Z,26.60
2022-12-26T10:12:37.746Z,26.70
2022-12-26T10:15:26.032Z,26.70
2022-12-26T10:18:04.563Z,26.70
2022-12-26T10:20:54.377Z,26.70
2022-12-26T10:23:21.950Z,26.50
2022-12-26T10:26:05.729Z,26.80
2022-12-26T10:28:47.751Z,26.70
2022-12-26T10:31:44.885Z,26.70
2022-12-26T10:34:23.028Z,26.70
2022-12-26T10:36:52.348Z,26.70
2022-12-26T10:39:34.967Z,26.70
2022-12-26T10:42:20.347Z,26.70
2022-12-26T10:44:46.984Z,26.80
2022-12-26T10:47:23.317Z,26.70
2022-12-26T10:49:50.045Z,26.70
2022-12-26T10:52:20.608Z,26.80
2022-12-26T10:55:29.302Z,26.80
2022-12-26T10:57:44.761Z,26.80
2022-12-26T11:00:22.176Z,26.80
2022-12-26T11:03:09.919Z,26.90
2022-12-26T11:06:08.843Z,26.80
2022-12-26T11:08:43.284Z,26.80
2022-12-26T11:11:27.036Z,26.90
2022-12-26T11:14:01.653Z,26.90
2022-12-26T11:16:33.807Z,26.90
2022-12-26T11:19:00.530Z,26.90
2022-12-26T11:21:29.619Z,26.90
2022-12-26T11:24:08.181Z,26.90
2022-12-26T11:26:35.128Z,26.90
2022-12-26T11:29:15.291Z,26.90
2022-12-26T11:31:49.749Z,26.90
2022-12-26T11:34:29.404Z,26.90
2022-12-26T11:36:56.104Z,26.90
2022-12-26T11:39:27.041Z,26.90
2022-12-26T11:41:54.187Z,26.90
2022-12-26T11:44:34.285Z,26.90
2022-12-26T11:47:16.640Z,27.00
2022-12-26T11:49:58.245Z,26.90
2022-12-26T11:52:55.191Z,26.90
2022-12-26T11:55:33.380Z,26.90
2022-12-26T11:58:09.365Z,26.90
2022-12-26T12:00:44.583Z,26.90
2022-12-26T12:03:28.875Z,26.90
2022-12-26T12:06:02.134Z,26.90
2022-12-26T12:08:42.305Z,27.00
2022-12-26T12:11:51.578Z,27.00
2022-12-26T12:14:40.406Z,26.90
2022-12-26T12:17:30.447Z,26.90
2022-12-26T12:20:30.194Z,26.90
2022-12-26T12:23:21.734Z,26.90
2022-12-26T12:26:00.487Z,26.90
2022-12-26T12:28:42.088Z,26.90
2022-12-26T12:31:26.687Z,26.90
2022-12-26T12:34:08.085Z,26.90
2022-12-26T12:36:40.720Z,26.90
2022-12-26T12:39:19.451Z,26.90
2022-12-26T12:41:55.412Z,27.00
2022-12-26T12:44:52.662Z,26.90
2022-12-26T12:47:37.518Z,27.00
2022-12-26T12:50:32.108Z,27.00
2022-12-26T12:53:15.312Z,27.00
2022-12-26T12:56:02.804Z,27.00
2022-12-26T12:58:54.471Z,27.00
2022-12-26T13:01:51.804Z,27.10
2022-12-26T13:04:26.712Z,27.10
2022-12-26T13:06:57.721Z,27.10
2022-12-26T13:09:51.027Z,27.10
2022-12-26T13:12:26.252Z,27.10
2022-12-26T13:15:28.047Z,27.10
2022-12-26T13:18:06.077Z,27.10
2022-12-26T13:20:41.918Z,27.20
2022-12-26T13:23:45.998Z,27.20
2022-12-26T13:26:25.225Z,27.20
2022-12-26T13:28:54.420Z,27.20
2022-12-26T13:31:21.903Z,27.20
2022-12-26T13:33:48.914Z,27.30
2022-12-26T13:36:46.441Z,27.30
2022-12-26T13:39:16.067Z,27.30
2022-12-26T13:42:28.478Z,27.40
2022-12-26T13:44:55.353Z,27.40
2022-12-26T13:47:33.201Z,27.40
2022-12-26T13:50:51.579Z,27.40
2022-12-26T13:53:25.844Z,27.40
2022-12-26T13:56:10.380Z,27.40
2022-12-26T13:59:04.572Z,27.40
2022-12-26T14:01:55.205Z,27.40
2022-12-26T14:04:25.313Z,27.40
2022-12-26T14:07:22.676Z,27.40
2022-12-26T14:09:58.480Z,27.40
2022-12-26T14:12:45.808Z,27.40
2022-12-26T14:15:35.590Z,27.40
2022-12-26T14:18:20.179Z,27.40
2022-12-26T14:21:01.353Z,27.40
2022-12-26T14:23:53.084Z,27.30
2022-12-26T14:26:25.400Z,27.30
2022-12-26T14:29:12.762Z,27.30
2022-12-26T14:31:54.612Z,27.30
2022-12-26T14:34:33.590Z,27.30
2022-12-26T14:37:26.046Z,27.30
2022-12-26T14:40:17.642Z,27.20
2022-12-26T14:43:23.551Z,27.20
2022-12-26T14:45:51.837Z,27.20
2022-12-26T14:48:18.487Z,27.30
2022-12-26T14:50:50.797Z,27.20
2022-12-26T14:53:20.599Z,27.20
2022-12-26T14:56:08.192Z,27.20
2022-12-26T14:58:41.846Z,27.20
2022-12-26T15:01:20.432Z,27.20
2022-12-26T15:04:05.825Z,27.20
2022-12-26T15:07:07.964Z,27.20
2022-12-26T15:09:59.382Z,27.20
2022-12-26T15:12:31.705Z,27.20
2022-12-26T15:15:26.703Z,27.20
2022-12-26T15:18:43.169Z,27.10
2022-12-26T15:21:26.885Z,27.10
2022-12-26T15:24:12.013Z,27.10
2022-12-26T15:26:53.731Z,27.10
2022-12-26T15:29:41.470Z,27.10
2022-12-26T15:32:18.307Z,27.10
2022-12-26T15:35:12.044Z,27.10
2022-12-26T15:38:02.457Z,27.10
2022-12-26T15:40:35.528Z,27.10
2022-12-26T15:43:04.910Z,27.10
2022-12-26T15:45:47.687Z,27.10
2022-12-26T15:48:57.180Z,27.10
2022-12-26T15:51:35.664Z,27.10
2022-12-26T15:54:26.835Z,27.10
2022-12-26T15:57:07.425Z,27.10
2022-12-26T16:00:12.882Z,27.00
2022-12-26T16:02:44.493Z,27.00
2022-12-26T16:05:11.157Z,27.00
2022-12-26T16:07:42.578Z,27.00
2022-12-26T16:10:26.969Z,27.00
2022-12-26T16:13:11.966Z,27.00
2022-12-26T16:16:05.532Z,27.00
2022-12-26T16:18:33.209Z,27.00
2022-12-26T16:21:22.824Z,27.00
2022-12-26T16:23:51.473Z,27.00
2022-12-26T16:26:29.045Z,27.00
2022-12-26T16:28:58.052Z,26.90
2022-12-26T16:31:27.943Z,26.90
2022-12-26T16:33:58.668Z,26.90
2022-12-26T16:36:28.805Z,26.90
2022-12-26T16:38:56.059Z,26.90
2022-12-26T16:41:28.465Z,26.90
2022-12-26T16:43:58.040Z,26.90
2022-12-26T16:46:29.793Z,26.90
2022-12-26T16:48:59.030Z,26.90
2022-12-26T16:51:47.162Z,26.90
2022-12-26T16:54:19.624Z,26.80
2022-12-26T16:57:36.468Z,26.90
2022-12-26T17:00:04.456Z,26.90
2022-12-26T17:02:34.450Z,26.90
2022-12-26T17:05:05.334Z,26.90
2022-12-26T17:07:35.463Z,26.90
2022-12-26T17:10:03.367Z,27.00
2022-12-26T17:12:37.221Z,27.00
2022-12-26T17:15:06.146Z,27.00
2022-12-26T17:17:36.255Z,27.10
2022-12-26T17:20:33.331Z,27.10
2022-12-26T17:23:00.104Z,27.10
2022-12-26T17:25:33.697Z,27.20
2022-12-26T17:28:09.818Z,27.20
2022-12-26T17:30:45.462Z,27.30
2022-12-26T17:33:34.793Z,27.30
2022-12-26T17:39:09.446Z,27.40
2022-12-26T17:41:36.119Z,27.40
2022-12-26T17:44:02.731Z,27.50
2022-12-26T17:46:29.431Z,27.50
2022-12-26T17:48:56.046Z,27.50
2022-12-26T17:51:22.696Z,27.50
2022-12-26T17:53:51.246Z,27.60
2022-12-26T17:56:23.309Z,27.60
2022-12-26T17:58:50.768Z,27.60
2022-12-26T18:01:21.475Z,27.70
2022-12-26T18:03:49.954Z,27.60
2022-12-26T18:06:17.417Z,27.70
2022-12-26T18:08:44.918Z,27.70
2022-12-26T18:11:13.628Z,27.70
2022-12-26T18:13:40.755Z,27.50
2022-12-26T18:16:10.379Z,27.70
2022-12-26T18:18:39.653Z,27.70
2022-12-26T18:21:08.579Z,27.70
2022-12-26T18:23:36.232Z,27.70
2022-12-26T18:26:11.350Z,27.70
2022-12-26T18:28:37.922Z,27.70
2022-12-26T18:31:04.630Z,27.80
2022-12-26T18:33:31.364Z,27.70
2022-12-26T18:36:00.817Z,27.70
2022-12-26T18:38:31.077Z,27.70
2022-12-26T18:41:00.919Z,27.80
2022-12-26T18:43:27.523Z,27.70
2022-12-26T18:45:54.201Z,27.80
2022-12-26T18:48:20.901Z,27.80
2022-12-26T18:50:47.608Z,27.80
2022-12-26T18:53:14.441Z,27.80
2022-12-26T18:55:41.283Z,27.80
2022-12-26T18:58:08.019Z,27.80
2022-12-26T19:00:35.992Z,27.80
2022-12-26T19:03:02.826Z,27.80
2022-12-26T19:05:32.734Z,27.80
2022-12-26T19:08:00.877Z,27.80
2022-12-26T19:10:32.963Z,27.80
2022-12-26T19:13:05.835Z,27.80
2022-12-26T19:15:34.544Z,27.80
2022-12-26T19:18:01.863Z,27.80
2022-12-26T19:20:29.296Z,27.80
2022-12-26T19:22:56.443Z,27.80
2022-12-26T19:25:24.773Z,27.80
2022-12-26T19:27:51.979Z,27.80
2022-12-26T19:30:19.834Z,27.80
2022-12-26T19:32:47.115Z,27.70
2022-12-26T19:35:15.159Z,27.70
2022-12-26T19:37:42.485Z,27.70
2022-12-26T19:40:10.166Z,27.70
2022-12-26T19:42:38.265Z,27.70
2022-12-26T19:45:06.357Z,27.70
2022-12-26T19:47:34.323Z,27.70
2022-12-26T19:50:01.526Z,27.70
2022-12-26T19:52:28.361Z,27.70
2022-12-26T19:54:54.964Z,27.70
2022-12-26T19:57:23.217Z,27.70
2022-12-26T19:59:50.530Z,27.60
2022-12-26T20:02:17.305Z,27.60
2022-12-26T20:04:44.178Z,27.60
2022-12-26T20:07:10.784Z,27.60
2022-12-26T20:09:37.420Z,27.50
2022-12-26T20:12:04.235Z,27.50
2022-12-26T20:14:32.520Z,27.50
2022-12-26T20:17:05.715Z,27.50
2022-12-26T20:19:33.448Z,27.40
2022-12-26T20:22:00.032Z,27.40
2022-12-26T20:24:26.640Z,27.40
2022-12-26T20:26:53.475Z,27.40
2022-12-26T20:29:20.368Z,27.30
2022-12-26T20:31:47.203Z,27.30
2022-12-26T20:34:14.031Z,27.30
2022-12-26T20:36:41.462Z,27.20
2022-12-26T20:39:13.079Z,27.20
2022-12-26T20:41:39.724Z,27.20
2022-12-26T20:44:06.368Z,27.20
2022-12-26T20:46:34.459Z,27.20
2022-12-26T20:49:02.247Z,27.10
2022-12-26T20:51:36.513Z,27.10
2022-12-26T20:54:08.973Z,27.10
2022-12-26T20:56:36.044Z,27.10
2022-12-26T20:59:03.435Z,27.10
2022-12-26T21:01:30.295Z,27.10
2022-12-26T21:03:57.689Z,27.10
2022-12-26T21:06:32.066Z,27.10
2022-12-26T21:08:58.924Z,27.00
2022-12-26T21:11:31.134Z,27.00
2022-12-26T21:14:00.708Z,27.00
2022-12-26T21:16:36.632Z,27.00
2022-12-26T21:19:08.008Z,26.90
2022-12-26T21:21:40.725Z,27.00
2022-12-26T21:24:30.375Z,26.90
2022-12-26T21:26:57.780Z,26.90
2022-12-26T21:29:29.192Z,26.90
2022-12-26T21:31:56.415Z,26.90
2022-12-26T21:34:25.718Z,26.90
2022-12-26T21:37:11.309Z,26.80
2022-12-26T21:39:38.385Z,26.80
2022-12-26T21:42:06.593Z,26.80
2022-12-26T21:44:34.028Z,26.80
2022-12-26T21:47:00.685Z,26.80
2022-12-26T21:49:28.005Z,26.70
2022-12-26T21:51:54.613Z,26.70
2022-12-26T21:54:44.808Z,26.70
2022-12-26T21:57:15.125Z,26.80
2022-12-26T21:59:56.824Z,26.70
2022-12-26T22:02:43.425Z,26.70
2022-12-26T22:05:10.222Z,26.70
2022-12-26T22:07:36.858Z,26.70
2022-12-26T22:10:04.855Z,26.70
2022-12-26T22:12:49.945Z,26.70
2022-12-26T22:15:35.431Z,26.70
2022-12-26T22:18:02.076Z,26.70
2022-12-26T22:20:28.669Z,26.70
2022-12-26T22:22:55.770Z,26.70
2022-12-26T22:25:22.435Z,26.60
2022-12-26T22:27:49.021Z,26.70
2022-12-26T22:30:15.759Z,26.60
2022-12-26T22:32:42.330Z,26.70
2022-12-26T22:35:14.808Z,26.70
2022-12-26T22:37:44.932Z,26.60
2022-12-26T22:40:12.062Z,26.60
2022-12-26T22:42:38.824Z,26.60
2022-12-26T22:45:05.878Z,26.60
2022-12-26T22:47:32.501Z,26.60
2022-12-26T22:49:59.052Z,26.60
2022-12-26T22:52:25.699Z,26.60
2022-12-26T22:54:52.295Z,26.60
2022-12-26T22:57:18.882Z,26.60
2022-12-26T23:02:32.302Z,26.60
2022-12-26T23:04:59.290Z,26.50
2022-12-26T23:07:26.225Z,26.60
2022-12-26T23:09:53.034Z,26.60
2022-12-26T23:12:38.529Z,26.60
2022-12-26T23:15:06.195Z,26.50
2022-12-26T23:17:56.309Z,26.50
2022-12-26T23:20:44.845Z,26.50
2022-12-26T23:23:11.712Z,26.50
2022-12-26T23:25:39.551Z,26.50
2022-12-26T23:28:24.953Z,26.50
2022-12-26T23:30:51.694Z,26.50
2022-12-26T23:33:18.301Z,26.50
2022-12-26T23:35:44.937Z,26.50
2022-12-26T23:38:11.505Z,26.50
2022-12-26T23:40:38.116Z,26.50
2022-12-26T23:43:04.815Z,26.50
2022-12-26T23:45:31.401Z,26.50
2022-12-26T23:47:57.960Z,26.40
2022-12-26T23:50:24.580Z,26.40
2022-12-26T23:52:51.143Z,26.40
2022-12-26T23:55:17.847Z,26.40
2022-12-26T23:57:44.459Z,26.40
